createdAt,value
2019-03-24T00:01:03.345Z,98.60
2019-03-24T00:02:11.887Z,98.50
2019-03-24T00:03:18.532Z,98.60
2019-03-24T00:04:25.236Z,98.60
2019-03-24T00:05:31.904Z,98.60
2019-03-24T00:06:38.671Z,98.60
2019-03-24T00:07:45.284Z,98.60
2019-03-24T00:08:51.585Z,98.40
2019-03-24T00:09:58.328Z,98.40
2019-03-24T00:11:05.262Z,98.40
2019-03-24T00:12:11.798Z,98.30
2019-03-24T00:13:18.337Z,98.30
2019-03-24T00:14:24.965Z,98.30
2019-03-24T00:15:31.650Z,98.30
2019-03-24T00:16:38.258Z,98.40
2019-03-24T00:17:44.934Z,98.40
2019-03-24T00:18:51.485Z,98.40
2019-03-24T00:19:58.362Z,98.40
2019-03-24T00:21:04.617Z,98.30
2019-03-24T00:22:11.367Z,98.40
2019-03-24T00:23:17.916Z,98.60
2019-03-24T00:24:24.405Z,98.50
2019-03-24T00:25:31.086Z,98.50
2019-03-24T00:26:37.719Z,98.50
2019-03-24T00:27:44.236Z,98.20
2019-03-24T00:28:50.796Z,98.00
2019-03-24T00:29:57.969Z,98.00
2019-03-24T00:31:04.769Z,98.00
2019-03-24T00:32:11.486Z,98.00
2019-03-24T00:33:17.770Z,98.00
2019-03-24T00:34:24.400Z,98.10
2019-03-24T00:35:31.015Z,98.10
2019-03-24T00:36:37.514Z,98.00
2019-03-24T00:37:44.046Z,98.20
2019-03-24T00:38:50.605Z,98.30
2019-03-24T00:39:57.678Z,98.40
2019-03-24T00:41:04.365Z,98.40
2019-03-24T00:42:11.025Z,98.40
2019-03-24T00:43:18.879Z,98.50
2019-03-24T00:44:25.154Z,98.80
2019-03-24T00:45:36.699Z,98.30
2019-03-24T00:46:40.157Z,98.50
2019-03-24T00:47:46.786Z,98.50
2019-03-24T00:48:53.354Z,98.40
2019-03-24T00:50:00.347Z,98.60
2019-03-24T00:51:07.046Z,98.60
2019-03-24T00:52:13.681Z,98.60
2019-03-24T00:53:20.268Z,98.60
2019-03-24T00:54:27.138Z,98.50
2019-03-24T00:55:33.726Z,98.50
2019-03-24T00:56:41.104Z,98.50
2019-03-24T00:57:47.683Z,98.50
2019-03-24T00:58:54.412Z,98.70
2019-03-24T01:00:01.313Z,98.90
2019-03-24T01:01:07.960Z,99.00
2019-03-24T01:02:14.583Z,99.10
2019-03-24T01:03:21.171Z,99.10
2019-03-24T01:04:27.832Z,99.10
2019-03-24T01:05:34.417Z,99.00
2019-03-24T01:06:41.393Z,99.40
2019-03-24T01:07:47.879Z,99.20
2019-03-24T01:08:54.244Z,99.20
2019-03-24T01:10:01.147Z,99.00
2019-03-24T01:11:07.702Z,99.10
2019-03-24T01:12:14.394Z,99.20
2019-03-24T01:13:21.124Z,99.10
2019-03-24T01:14:29.137Z,99.10
2019-03-24T01:15:47.011Z,99.10
2019-03-24T01:16:44.440Z,99.00
2019-03-24T01:17:51.089Z,98.90
2019-03-24T01:18:57.746Z,99.00
2019-03-24T01:20:04.278Z,98.80
2019-03-24T01:21:10.855Z,98.70
2019-03-24T01:22:17.652Z,98.60
2019-03-24T01:23:24.276Z,98.60
2019-03-24T01:24:30.915Z,98.70
2019-03-24T01:25:37.395Z,98.60
2019-03-24T01:26:43.984Z,98.60
2019-03-24T01:27:50.673Z,98.50
2019-03-24T01:28:57.273Z,98.50
2019-03-24T01:30:04.210Z,98.50
2019-03-24T01:31:10.868Z,98.40
2019-03-24T01:32:17.496Z,98.50
2019-03-24T01:33:24.228Z,98.50
2019-03-24T01:34:30.636Z,98.70
2019-03-24T01:35:38.246Z,98.50
2019-03-24T01:36:44.765Z,98.50
2019-03-24T01:37:51.445Z,98.50
2019-03-24T01:38:58.273Z,98.40
2019-03-24T01:40:05.078Z,98.30
2019-03-24T01:41:11.678Z,98.20
2019-03-24T01:42:18.248Z,98.30
2019-03-24T01:43:24.555Z,98.30
2019-03-24T01:44:31.126Z,98.30
2019-03-24T01:45:37.732Z,98.40
2019-03-24T01:46:44.485Z,98.40
2019-03-24T01:47:50.999Z,98.40
2019-03-24T01:48:57.617Z,98.40
2019-03-24T01:50:04.404Z,98.40
2019-03-24T01:51:10.945Z,98.40
2019-03-24T01:52:17.701Z,98.50
2019-03-24T01:53:24.268Z,98.40
2019-03-24T01:54:31.074Z,98.40
2019-03-24T01:55:37.401Z,98.50
2019-03-24T01:56:44.102Z,98.70
2019-03-24T01:57:50.693Z,99.00
2019-03-24T01:58:57.196Z,99.00
2019-03-24T02:00:04.073Z,99.00
2019-03-24T02:01:10.685Z,99.30
2019-03-24T02:02:17.303Z,99.40
2019-03-24T02:03:24.265Z,99.80
2019-03-24T02:04:30.813Z,99.80
2019-03-24T02:05:37.506Z,99.90
2019-03-24T02:06:44.219Z,99.90
2019-03-24T02:07:50.716Z,99.90
2019-03-24T02:08:57.437Z,99.90
2019-03-24T02:10:04.176Z,99.90
2019-03-24T02:11:11.756Z,99.90
2019-03-24T02:12:18.449Z,99.90
2019-03-24T02:13:24.914Z,99.90
2019-03-24T02:14:31.542Z,99.90
2019-03-24T02:15:38.177Z,99.90
2019-03-24T02:16:44.876Z,99.90
2019-03-24T02:17:51.362Z,99.90
2019-03-24T02:18:57.731Z,99.90
2019-03-24T02:20:04.333Z,99.90
2019-03-24T02:21:10.846Z,99.90
2019-03-24T02:22:17.432Z,99.90
2019-03-24T02:23:23.968Z,99.90
2019-03-24T02:24:30.656Z,99.90
2019-03-24T02:25:37.357Z,99.90
2019-03-24T02:26:43.947Z,99.90
2019-03-24T02:27:50.535Z,99.90
2019-03-24T02:28:57.087Z,99.90
2019-03-24T02:30:03.657Z,99.90
2019-03-24T02:31:10.330Z,99.90
2019-03-24T02:32:16.876Z,99.90
2019-03-24T02:33:23.719Z,99.90
2019-03-24T02:34:30.589Z,99.90
2019-03-24T02:35:37.062Z,99.90
2019-03-24T02:36:43.745Z,99.90
2019-03-24T02:37:50.315Z,99.90
2019-03-24T02:38:56.772Z,99.90
2019-03-24T02:40:04.465Z,99.90
2019-03-24T02:41:12.277Z,99.90
2019-03-24T02:42:20.175Z,99.90
2019-03-24T02:43:26.498Z,99.90
2019-03-24T02:44:33.134Z,99.90
2019-03-24T02:45:39.786Z,99.90
2019-03-24T02:46:46.646Z,99.90
2019-03-24T02:47:53.213Z,99.90
2019-03-24T02:49:00.728Z,99.90
2019-03-24T02:50:07.505Z,99.90
2019-03-24T02:51:14.102Z,99.90
2019-03-24T02:52:20.595Z,99.90
2019-03-24T02:53:27.214Z,99.90
2019-03-24T02:54:33.569Z,99.90
2019-03-24T02:55:40.230Z,99.90
2019-03-24T02:56:46.746Z,99.90
2019-03-24T02:57:53.370Z,99.90
2019-03-24T02:58:59.970Z,99.90
2019-03-24T03:00:07.906Z,99.90
2019-03-24T03:01:14.367Z,99.90
2019-03-24T03:02:21.456Z,99.90
2019-03-24T03:03:28.139Z,99.90
2019-03-24T03:04:34.804Z,99.90
2019-03-24T03:05:41.742Z,99.90
2019-03-24T03:06:48.326Z,99.90
2019-03-24T03:07:55.008Z,99.90
2019-03-24T03:09:01.537Z,99.90
2019-03-24T03:10:11.101Z,99.90
2019-03-24T03:11:18.262Z,99.90
2019-03-24T03:12:25.404Z,99.90
2019-03-24T03:13:32.051Z,99.90
2019-03-24T03:14:38.545Z,99.90
2019-03-24T03:15:45.043Z,99.90
2019-03-24T03:16:51.659Z,99.90
2019-03-24T03:17:58.277Z,99.90
2019-03-24T03:19:04.867Z,99.90
2019-03-24T03:20:11.868Z,99.90
2019-03-24T03:21:18.478Z,99.90
2019-03-24T03:22:25.012Z,99.90
2019-03-24T03:23:31.756Z,99.90
2019-03-24T03:24:39.353Z,99.90
2019-03-24T03:25:45.889Z,99.90
2019-03-24T03:26:52.410Z,99.90
2019-03-24T03:27:59.417Z,99.90
2019-03-24T03:29:06.015Z,99.90
2019-03-24T03:30:13.018Z,99.90
2019-03-24T03:31:19.608Z,99.90
2019-03-24T03:32:26.765Z,99.90
2019-03-24T03:33:33.342Z,99.90
2019-03-24T03:34:39.895Z,99.90
2019-03-24T03:35:46.349Z,99.90
2019-03-24T03:36:52.944Z,99.90
2019-03-24T03:37:59.617Z,99.90
2019-03-24T03:39:07.641Z,99.90
2019-03-24T03:40:14.596Z,99.90
2019-03-24T03:41:20.950Z,99.90
2019-03-24T03:42:27.616Z,99.90
2019-03-24T03:43:34.171Z,99.90
2019-03-24T03:44:40.712Z,99.90
2019-03-24T03:45:47.178Z,99.90
2019-03-24T03:46:53.810Z,99.90
2019-03-24T03:48:00.494Z,99.90
2019-03-24T03:49:07.107Z,99.90
2019-03-24T03:50:13.675Z,99.90
2019-03-24T03:51:20.281Z,99.90
2019-03-24T03:52:26.818Z,99.90
2019-03-24T03:53:33.097Z,99.90
2019-03-24T03:54:39.460Z,99.90
2019-03-24T03:55:46.184Z,99.90
2019-03-24T03:56:53.761Z,99.90
2019-03-24T03:58:00.339Z,99.90
2019-03-24T03:59:06.994Z,99.90
2019-03-24T04:00:15.427Z,99.90
2019-03-24T04:01:22.030Z,99.90
2019-03-24T04:02:28.655Z,99.90
2019-03-24T04:03:35.282Z,99.90
2019-03-24T04:04:41.799Z,99.90
2019-03-24T04:05:48.150Z,99.90
2019-03-24T04:06:54.814Z,99.90
2019-03-24T04:08:01.760Z,99.90
2019-03-24T04:09:09.309Z,99.90
2019-03-24T04:10:15.755Z,99.90
2019-03-24T04:11:22.493Z,99.90
2019-03-24T04:12:29.113Z,99.90
2019-03-24T04:13:35.637Z,99.90
2019-03-24T04:14:42.094Z,99.90
2019-03-24T04:15:48.869Z,99.90
2019-03-24T04:17:06.134Z,99.90
2019-03-24T04:18:03.584Z,99.90
2019-03-24T04:19:10.229Z,99.90
2019-03-24T04:20:17.776Z,99.90
2019-03-24T04:21:24.535Z,99.90
2019-03-24T04:22:31.188Z,99.90
2019-03-24T04:23:37.802Z,99.90
2019-03-24T04:24:44.438Z,99.90
2019-03-24T04:25:53.944Z,99.90
2019-03-24T04:27:00.413Z,99.90
2019-03-24T04:28:06.975Z,99.90
2019-03-24T04:29:13.531Z,99.90
2019-03-24T04:30:20.008Z,99.90
2019-03-24T04:31:26.695Z,99.90
2019-03-24T04:32:33.364Z,99.90
2019-03-24T04:33:40.078Z,99.90
2019-03-24T04:34:46.457Z,99.90
2019-03-24T04:35:52.965Z,99.90
2019-03-24T04:36:59.475Z,99.90
2019-03-24T04:38:06.124Z,99.90
2019-03-24T04:39:12.747Z,99.90
2019-03-24T04:40:19.016Z,99.90
2019-03-24T04:41:28.281Z,99.90
2019-03-24T04:42:34.720Z,99.90
2019-03-24T04:43:43.593Z,99.90
2019-03-24T04:44:50.321Z,99.90
2019-03-24T04:45:58.076Z,99.90
2019-03-24T04:47:04.774Z,99.90
2019-03-24T04:48:11.634Z,99.90
2019-03-24T04:49:35.096Z,99.90
2019-03-24T04:50:41.954Z,99.90
2019-03-24T04:51:48.542Z,99.90
2019-03-24T04:52:55.082Z,99.90
2019-03-24T04:54:01.679Z,99.90
2019-03-24T04:55:08.725Z,99.90
2019-03-24T04:56:15.347Z,99.90
2019-03-24T04:57:22.040Z,99.90
2019-03-24T04:58:28.594Z,99.90
2019-03-24T04:59:35.248Z,99.90
2019-03-24T05:00:41.946Z,99.90
2019-03-24T05:01:48.606Z,99.90
2019-03-24T05:02:55.143Z,99.90
2019-03-24T05:04:01.632Z,99.90
2019-03-24T05:05:08.515Z,99.90
2019-03-24T05:06:15.903Z,99.90
2019-03-24T05:07:22.816Z,99.90
2019-03-24T05:08:29.585Z,99.90
2019-03-24T05:09:36.548Z,99.90
2019-03-24T05:10:43.242Z,99.90
2019-03-24T05:11:49.575Z,99.90
2019-03-24T05:12:56.206Z,99.90
2019-03-24T05:14:02.868Z,99.90
2019-03-24T05:15:09.574Z,99.90
2019-03-24T05:16:16.170Z,99.90
2019-03-24T05:17:27.046Z,99.90
2019-03-24T05:18:30.906Z,99.90
2019-03-24T05:19:37.901Z,99.90
2019-03-24T05:20:44.373Z,99.90
2019-03-24T05:21:51.017Z,99.90
2019-03-24T05:22:57.582Z,99.90
2019-03-24T05:24:04.230Z,99.90
2019-03-24T05:25:10.932Z,99.90
2019-03-24T05:26:17.527Z,99.90
2019-03-24T05:27:24.258Z,99.90
2019-03-24T05:28:31.127Z,99.90
2019-03-24T05:29:37.656Z,99.90
2019-03-24T05:30:44.288Z,99.90
2019-03-24T05:31:50.976Z,99.90
2019-03-24T05:32:57.626Z,99.90
2019-03-24T05:34:04.275Z,99.90
2019-03-24T05:35:10.913Z,99.90
2019-03-24T05:36:17.626Z,99.90
2019-03-24T05:37:23.972Z,99.90
2019-03-24T05:38:30.397Z,99.90
2019-03-24T05:39:37.078Z,99.90
2019-03-24T05:40:43.867Z,99.90
2019-03-24T05:41:50.576Z,99.90
2019-03-24T05:42:57.386Z,99.90
2019-03-24T05:44:04.215Z,99.90
2019-03-24T05:45:10.984Z,99.90
2019-03-24T05:46:17.608Z,99.90
2019-03-24T05:47:24.919Z,99.90
2019-03-24T05:48:31.294Z,99.90
2019-03-24T05:49:37.835Z,99.90
2019-03-24T05:50:44.902Z,99.90
2019-03-24T05:51:51.876Z,99.90
2019-03-24T05:52:58.428Z,99.90
2019-03-24T05:54:05.202Z,99.90
2019-03-24T05:55:12.010Z,99.90
2019-03-24T05:56:19.678Z,99.90
2019-03-24T05:57:26.537Z,99.90
2019-03-24T05:58:33.112Z,99.90
2019-03-24T05:59:39.937Z,99.90
2019-03-24T06:00:46.627Z,99.90
2019-03-24T06:01:53.214Z,99.90
2019-03-24T06:02:59.926Z,99.90
2019-03-24T06:04:06.505Z,99.90
2019-03-24T06:05:13.188Z,99.90
2019-03-24T06:06:19.730Z,99.90
2019-03-24T06:07:26.284Z,99.90
2019-03-24T06:08:32.923Z,99.90
2019-03-24T06:09:39.572Z,99.90
2019-03-24T06:10:46.611Z,99.90
2019-03-24T06:11:53.328Z,99.90
2019-03-24T06:12:59.993Z,99.90
2019-03-24T06:14:06.516Z,99.90
2019-03-24T06:15:13.299Z,99.90
2019-03-24T06:16:20.023Z,99.90
2019-03-24T06:17:26.612Z,99.90
2019-03-24T06:18:33.167Z,99.90
2019-03-24T06:19:39.896Z,99.90
2019-03-24T06:20:46.435Z,99.90
2019-03-24T06:21:54.061Z,99.90
2019-03-24T06:23:00.993Z,99.90
2019-03-24T06:24:07.686Z,99.90
2019-03-24T06:25:14.518Z,99.90
2019-03-24T06:26:21.037Z,99.90
2019-03-24T06:27:27.783Z,99.90
2019-03-24T06:28:34.424Z,99.90
2019-03-24T06:29:40.957Z,99.90
2019-03-24T06:30:47.671Z,99.90
2019-03-24T06:31:54.381Z,99.90
2019-03-24T06:33:01.004Z,99.90
2019-03-24T06:34:07.647Z,99.90
2019-03-24T06:35:14.484Z,99.90
2019-03-24T06:36:21.239Z,99.90
2019-03-24T06:37:28.075Z,99.90
2019-03-24T06:38:34.595Z,99.90
2019-03-24T06:39:41.446Z,99.90
2019-03-24T06:40:48.273Z,99.90
2019-03-24T06:41:54.856Z,99.90
2019-03-24T06:43:01.450Z,99.90
2019-03-24T06:44:08.126Z,99.90
2019-03-24T06:45:14.888Z,99.90
2019-03-24T06:46:21.336Z,99.90
2019-03-24T06:47:28.084Z,99.90
2019-03-24T06:48:34.355Z,99.90
2019-03-24T06:49:41.191Z,99.90
2019-03-24T06:50:47.836Z,99.90
2019-03-24T06:51:54.372Z,99.90
2019-03-24T06:53:01.075Z,99.90
2019-03-24T06:54:07.581Z,99.90
2019-03-24T06:55:15.407Z,99.90
2019-03-24T06:56:22.120Z,99.90
2019-03-24T06:57:28.906Z,99.90
2019-03-24T06:58:35.501Z,99.90
2019-03-24T06:59:42.963Z,99.90
2019-03-24T07:00:50.740Z,99.90
2019-03-24T07:01:57.452Z,99.90
2019-03-24T07:03:03.994Z,99.90
2019-03-24T07:04:10.527Z,99.90
2019-03-24T07:05:17.067Z,99.90
2019-03-24T07:06:23.723Z,99.90
2019-03-24T07:07:31.536Z,99.90
2019-03-24T07:08:38.078Z,99.90
2019-03-24T07:09:44.545Z,99.90
2019-03-24T07:10:50.864Z,99.90
2019-03-24T07:12:00.096Z,99.90
2019-03-24T07:13:06.537Z,99.90
2019-03-24T07:14:13.129Z,99.90
2019-03-24T07:15:19.979Z,99.90
2019-03-24T07:16:26.566Z,99.70
2019-03-24T07:17:33.203Z,99.60
2019-03-24T07:18:40.142Z,99.40
2019-03-24T07:19:46.654Z,99.20
2019-03-24T07:20:53.238Z,99.40
2019-03-24T07:22:00.519Z,99.40
2019-03-24T07:23:07.057Z,99.10
2019-03-24T07:24:13.606Z,98.90
2019-03-24T07:25:20.388Z,98.90
2019-03-24T07:26:27.708Z,98.80
2019-03-24T07:27:34.403Z,98.80
2019-03-24T07:28:41.056Z,98.60
2019-03-24T07:29:47.635Z,98.90
2019-03-24T07:30:54.499Z,98.40
2019-03-24T07:32:01.110Z,98.00
2019-03-24T07:33:07.504Z,98.10
2019-03-24T07:34:13.739Z,97.60
2019-03-24T07:35:20.419Z,97.50
2019-03-24T07:36:27.105Z,97.90
2019-03-24T07:37:33.826Z,97.90
2019-03-24T07:38:40.695Z,97.70
2019-03-24T07:39:47.357Z,97.80
2019-03-24T07:40:53.799Z,96.50
2019-03-24T07:42:00.526Z,96.50
2019-03-24T07:43:07.150Z,96.10
2019-03-24T07:44:13.634Z,96.20
2019-03-24T07:45:20.318Z,96.30
2019-03-24T07:46:26.968Z,96.80
2019-03-24T07:47:33.575Z,96.60
2019-03-24T07:48:40.244Z,96.90
2019-03-24T07:49:46.867Z,96.60
2019-03-24T07:50:54.569Z,96.10
2019-03-24T07:52:01.381Z,96.20
2019-03-24T07:53:07.844Z,96.10
2019-03-24T07:54:14.441Z,95.80
2019-03-24T07:55:21.096Z,96.00
2019-03-24T07:56:27.634Z,95.70
2019-03-24T07:57:34.090Z,95.50
2019-03-24T07:58:40.556Z,94.80
2019-03-24T07:59:47.318Z,95.10
2019-03-24T08:00:53.951Z,94.80
2019-03-24T08:02:00.739Z,94.90
2019-03-24T08:03:07.449Z,94.10
2019-03-24T08:04:14.116Z,94.10
2019-03-24T08:05:20.711Z,94.40
2019-03-24T08:06:27.326Z,94.60
2019-03-24T08:07:33.932Z,94.10
2019-03-24T08:08:44.161Z,94.40
2019-03-24T08:09:48.715Z,94.20
2019-03-24T08:10:55.541Z,94.10
2019-03-24T08:12:02.063Z,94.10
2019-03-24T08:13:11.813Z,94.10
2019-03-24T08:14:18.706Z,93.30
2019-03-24T08:15:25.284Z,93.90
2019-03-24T08:16:31.958Z,93.20
2019-03-24T08:17:38.666Z,92.70
2019-03-24T08:18:45.479Z,92.20
2019-03-24T08:19:51.949Z,92.50
2019-03-24T08:20:58.602Z,92.80
2019-03-24T08:22:05.229Z,92.60
2019-03-24T08:23:11.747Z,91.90
2019-03-24T08:24:18.344Z,92.20
2019-03-24T08:25:24.955Z,92.30
2019-03-24T08:26:31.705Z,92.30
2019-03-24T08:27:38.453Z,92.70
2019-03-24T08:28:44.991Z,92.90
2019-03-24T08:29:51.536Z,92.80
2019-03-24T08:30:58.733Z,92.70
2019-03-24T08:32:05.302Z,92.40
2019-03-24T08:33:11.993Z,92.40
2019-03-24T08:34:18.679Z,92.00
2019-03-24T08:35:25.148Z,92.00
2019-03-24T08:36:31.954Z,92.50
2019-03-24T08:37:39.018Z,92.10
2019-03-24T08:38:45.716Z,92.20
2019-03-24T08:39:52.205Z,92.40
2019-03-24T08:40:58.810Z,92.40
2019-03-24T08:42:05.720Z,92.00
2019-03-24T08:43:12.385Z,91.90
2019-03-24T08:44:19.226Z,92.10
2019-03-24T08:45:29.945Z,92.00
2019-03-24T08:46:36.546Z,92.00
2019-03-24T08:47:43.153Z,91.90
2019-03-24T08:48:49.682Z,91.40
2019-03-24T08:49:56.543Z,91.00
2019-03-24T08:51:03.048Z,90.30
2019-03-24T08:52:09.589Z,90.00
2019-03-24T08:53:16.291Z,90.20
2019-03-24T08:54:22.985Z,90.40
2019-03-24T08:55:29.397Z,90.90
2019-03-24T08:56:36.043Z,90.60
2019-03-24T08:57:42.692Z,90.40
2019-03-24T08:58:49.278Z,90.40
2019-03-24T08:59:55.836Z,90.80
2019-03-24T09:01:02.609Z,90.50
2019-03-24T09:02:09.158Z,89.90
2019-03-24T09:03:15.686Z,89.10
2019-03-24T09:04:22.292Z,87.50
2019-03-24T09:05:29.072Z,86.20
2019-03-24T09:06:35.848Z,84.70
2019-03-24T09:07:42.609Z,84.80
2019-03-24T09:08:49.227Z,84.60
2019-03-24T09:09:55.960Z,84.00
2019-03-24T09:11:02.620Z,85.20
2019-03-24T09:12:09.301Z,85.80
2019-03-24T09:13:15.894Z,87.00
2019-03-24T09:14:22.456Z,86.40
2019-03-24T09:15:29.181Z,85.70
2019-03-24T09:16:35.753Z,85.80
2019-03-24T09:17:42.696Z,84.30
2019-03-24T09:18:52.835Z,78.70
2019-03-24T09:19:57.340Z,76.10
2019-03-24T09:21:04.146Z,77.20
2019-03-24T09:22:10.760Z,77.50
2019-03-24T09:23:17.449Z,77.80
2019-03-24T09:24:24.164Z,77.50
2019-03-24T09:25:30.847Z,79.50
2019-03-24T09:26:37.458Z,79.50
2019-03-24T09:27:44.095Z,79.90
2019-03-24T09:28:50.760Z,82.10
2019-03-24T09:29:57.473Z,82.30
2019-03-24T09:31:04.100Z,83.30
2019-03-24T09:32:10.806Z,75.30
2019-03-24T09:33:17.425Z,76.40
2019-03-24T09:34:24.346Z,76.20
2019-03-24T09:35:30.876Z,74.30
2019-03-24T09:36:37.574Z,75.70
2019-03-24T09:37:44.113Z,76.50
2019-03-24T09:38:50.764Z,77.80
2019-03-24T09:39:57.422Z,77.20
2019-03-24T09:41:04.067Z,76.00
2019-03-24T09:42:10.748Z,74.10
2019-03-24T09:43:17.501Z,74.60
2019-03-24T09:44:24.135Z,75.00
2019-03-24T09:45:31.419Z,76.20
2019-03-24T09:46:38.017Z,77.60
2019-03-24T09:47:44.734Z,77.80
2019-03-24T09:48:51.381Z,77.30
2019-03-24T09:49:58.109Z,76.00
2019-03-24T09:51:05.378Z,74.10
2019-03-24T09:52:11.965Z,73.50
2019-03-24T09:53:18.713Z,71.80
2019-03-24T09:54:25.308Z,72.40
2019-03-24T09:55:31.626Z,72.40
2019-03-24T09:56:38.260Z,73.30
2019-03-24T09:57:45.080Z,72.20
2019-03-24T09:58:51.625Z,73.10
2019-03-24T09:59:58.663Z,72.40
2019-03-24T10:01:06.066Z,72.70
2019-03-24T10:02:12.568Z,73.30
2019-03-24T10:03:19.003Z,70.40
2019-03-24T10:04:25.549Z,68.40
2019-03-24T10:05:32.121Z,66.90
2019-03-24T10:06:38.503Z,64.50
2019-03-24T10:07:44.857Z,61.60
2019-03-24T10:08:51.547Z,60.80
2019-03-24T10:09:58.193Z,61.90
2019-03-24T10:11:04.845Z,64.30
2019-03-24T10:12:11.542Z,65.00
2019-03-24T10:13:18.336Z,65.80
2019-03-24T10:14:24.917Z,64.10
2019-03-24T10:15:31.488Z,62.10
2019-03-24T10:16:37.916Z,62.60
2019-03-24T10:17:44.777Z,62.40
2019-03-24T10:18:51.274Z,64.10
2019-03-24T10:19:57.921Z,65.00
2019-03-24T10:21:04.466Z,66.00
2019-03-24T10:22:11.145Z,66.40
2019-03-24T10:23:17.897Z,68.90
2019-03-24T10:24:24.552Z,68.00
2019-03-24T10:25:31.115Z,66.70
2019-03-24T10:26:37.782Z,67.10
2019-03-24T10:27:44.470Z,65.90
2019-03-24T10:28:51.217Z,66.70
2019-03-24T10:29:57.761Z,64.70
2019-03-24T10:31:04.108Z,63.30
2019-03-24T10:32:10.868Z,63.20
2019-03-24T10:33:17.574Z,65.00
2019-03-24T10:34:24.178Z,61.90
2019-03-24T10:35:30.847Z,60.30
2019-03-24T10:36:37.526Z,60.00
2019-03-24T10:37:43.968Z,57.70
2019-03-24T10:38:50.644Z,57.90
2019-03-24T10:39:57.336Z,57.60
2019-03-24T10:41:04.055Z,58.20
2019-03-24T10:42:10.753Z,56.60
2019-03-24T10:43:17.096Z,55.90
2019-03-24T10:44:23.774Z,55.80
2019-03-24T10:45:30.447Z,56.50
2019-03-24T10:46:37.252Z,56.60
2019-03-24T10:47:43.806Z,55.00
2019-03-24T10:48:50.329Z,53.90
2019-03-24T10:49:56.962Z,54.10
2019-03-24T10:51:05.655Z,55.00
2019-03-24T10:52:12.223Z,55.60
2019-03-24T10:53:18.849Z,56.80
2019-03-24T10:54:25.347Z,57.50
2019-03-24T10:55:32.046Z,56.40
2019-03-24T10:56:38.799Z,54.80
2019-03-24T10:57:45.627Z,54.30
2019-03-24T10:58:52.453Z,54.60
2019-03-24T10:59:59.121Z,54.10
2019-03-24T11:01:07.140Z,54.00
2019-03-24T11:02:13.779Z,55.50
2019-03-24T11:03:20.573Z,55.00
2019-03-24T11:04:27.443Z,53.80
2019-03-24T11:05:34.175Z,52.80
2019-03-24T11:06:40.558Z,53.10
2019-03-24T11:07:47.247Z,55.00
2019-03-24T11:08:54.038Z,55.30
2019-03-24T11:10:00.718Z,54.60
2019-03-24T11:11:07.368Z,54.00
2019-03-24T11:12:14.064Z,52.40
2019-03-24T11:13:20.747Z,49.30
2019-03-24T11:14:27.352Z,46.50
2019-03-24T11:15:34.287Z,44.40
2019-03-24T11:16:41.019Z,41.10
2019-03-24T11:17:47.475Z,42.20
2019-03-24T11:18:53.810Z,43.90
2019-03-24T11:20:00.508Z,45.00
2019-03-24T11:21:08.911Z,45.90
2019-03-24T11:22:15.896Z,47.10
2019-03-24T11:23:22.651Z,48.40
2019-03-24T11:24:29.091Z,49.90
2019-03-24T11:25:35.898Z,49.10
2019-03-24T11:26:42.489Z,49.20
2019-03-24T11:27:49.024Z,49.30
2019-03-24T11:28:56.119Z,47.70
2019-03-24T11:30:02.477Z,47.00
2019-03-24T11:31:09.067Z,45.40
2019-03-24T11:32:15.673Z,45.10
2019-03-24T11:33:22.515Z,43.80
2019-03-24T11:34:29.133Z,43.50
2019-03-24T11:35:36.823Z,44.40
2019-03-24T11:36:43.735Z,44.80
2019-03-24T11:37:50.342Z,44.20
2019-03-24T11:38:59.062Z,42.50
2019-03-24T11:40:05.867Z,41.10
2019-03-24T11:41:12.652Z,40.40
2019-03-24T11:42:19.521Z,40.00
2019-03-24T11:43:26.119Z,38.00
2019-03-24T11:44:34.766Z,34.90
2019-03-24T11:45:41.227Z,32.60
2019-03-24T11:46:47.665Z,32.20
2019-03-24T11:47:54.279Z,30.20
2019-03-24T11:49:00.895Z,30.50
2019-03-24T11:50:07.957Z,29.90
2019-03-24T11:51:15.797Z,29.00
2019-03-24T11:52:22.382Z,29.10
2019-03-24T11:53:28.823Z,31.30
2019-03-24T11:54:35.562Z,31.90
2019-03-24T11:55:42.174Z,31.10
2019-03-24T11:56:48.858Z,30.50
2019-03-24T11:58:05.361Z,30.40
2019-03-24T11:59:03.899Z,31.30
2019-03-24T12:00:11.715Z,32.20
2019-03-24T12:01:18.257Z,32.50
2019-03-24T12:02:24.995Z,33.90
2019-03-24T12:03:31.658Z,34.50
2019-03-24T12:04:38.404Z,34.30
2019-03-24T12:05:45.107Z,33.90
2019-03-24T12:06:52.783Z,34.60
2019-03-24T12:07:59.418Z,34.30
2019-03-24T12:09:07.654Z,32.80
2019-03-24T12:10:14.675Z,32.00
2019-03-24T12:11:21.187Z,30.50
2019-03-24T12:12:27.848Z,31.20
2019-03-24T12:13:34.681Z,31.70
2019-03-24T12:14:41.532Z,31.80
2019-03-24T12:15:47.996Z,32.30
2019-03-24T12:16:54.860Z,30.50
2019-03-24T12:18:01.622Z,30.60
2019-03-24T12:19:08.415Z,31.00
2019-03-24T12:20:15.374Z,31.80
2019-03-24T12:21:22.261Z,31.10
2019-03-24T12:22:29.163Z,30.30
2019-03-24T12:23:36.200Z,28.90
2019-03-24T12:24:43.882Z,29.20
2019-03-24T12:25:53.629Z,28.30
2019-03-24T12:27:00.476Z,27.90
2019-03-24T12:28:07.182Z,27.70
2019-03-24T12:29:14.102Z,27.20
2019-03-24T12:30:20.923Z,27.30
2019-03-24T12:31:27.528Z,27.30
2019-03-24T12:32:34.394Z,28.20
2019-03-24T12:33:41.086Z,28.90
2019-03-24T12:34:47.797Z,28.80
2019-03-24T12:35:54.371Z,28.60
2019-03-24T12:37:01.076Z,28.40
2019-03-24T12:38:07.623Z,27.90
2019-03-24T12:39:14.191Z,27.50
2019-03-24T12:40:20.848Z,27.90
2019-03-24T12:41:27.746Z,27.50
2019-03-24T12:42:34.414Z,27.80
2019-03-24T12:43:41.420Z,27.00
2019-03-24T12:44:48.007Z,27.30
2019-03-24T12:45:54.958Z,27.60
2019-03-24T12:47:01.545Z,28.00
2019-03-24T12:48:08.369Z,28.30
2019-03-24T12:49:15.238Z,28.80
2019-03-24T12:50:30.873Z,29.10
2019-03-24T12:51:29.742Z,29.90
2019-03-24T12:52:36.500Z,29.80
2019-03-24T12:53:43.114Z,29.20
2019-03-24T12:54:50.257Z,29.10
2019-03-24T12:55:57.249Z,28.40
2019-03-24T12:57:04.257Z,28.80
2019-03-24T12:58:11.196Z,29.50
2019-03-24T12:59:17.966Z,29.50
2019-03-24T13:00:41.751Z,30.00
2019-03-24T13:01:48.526Z,29.20
2019-03-24T13:02:55.553Z,28.60
2019-03-24T13:04:02.383Z,28.40
2019-03-24T13:05:11.369Z,28.40
2019-03-24T13:06:18.238Z,28.00
2019-03-24T13:07:25.246Z,28.30
2019-03-24T13:08:32.088Z,29.50
2019-03-24T13:09:38.959Z,29.00
2019-03-24T13:10:46.586Z,29.30
2019-03-24T13:11:53.712Z,29.20
2019-03-24T13:13:00.865Z,30.00
2019-03-24T13:14:07.590Z,29.20
2019-03-24T13:15:15.528Z,28.50
2019-03-24T13:16:22.405Z,27.70
2019-03-24T13:17:29.212Z,27.80
2019-03-24T13:18:36.104Z,27.90
2019-03-24T13:19:42.615Z,28.70
2019-03-24T13:20:49.506Z,29.80
2019-03-24T13:21:56.073Z,30.70
2019-03-24T13:23:02.763Z,30.00
2019-03-24T13:24:09.480Z,30.10
2019-03-24T13:25:16.070Z,29.40
2019-03-24T13:26:22.902Z,29.40
2019-03-24T13:27:29.635Z,29.20
2019-03-24T13:28:37.566Z,28.30
2019-03-24T13:29:44.316Z,29.00
2019-03-24T13:30:51.304Z,29.40
2019-03-24T13:31:58.317Z,29.10
2019-03-24T13:33:05.176Z,29.30
2019-03-24T13:34:12.216Z,29.40
2019-03-24T13:35:19.056Z,31.60
2019-03-24T13:36:26.039Z,32.80
2019-03-24T13:37:32.807Z,33.10
2019-03-24T13:38:39.517Z,31.80
2019-03-24T13:39:46.243Z,31.40
2019-03-24T13:40:53.028Z,31.80
2019-03-24T13:41:59.819Z,33.10
2019-03-24T13:43:06.634Z,34.50
2019-03-24T13:44:13.142Z,35.70
2019-03-24T13:45:19.636Z,37.20
2019-03-24T13:46:26.549Z,36.90
2019-03-24T13:47:33.171Z,36.80
2019-03-24T13:48:40.241Z,38.70
2019-03-24T13:49:47.175Z,39.00
2019-03-24T13:50:54.093Z,40.40
2019-03-24T13:52:00.917Z,40.70
2019-03-24T13:53:07.896Z,40.20
2019-03-24T13:54:14.558Z,39.90
2019-03-24T13:55:21.497Z,39.00
2019-03-24T13:56:29.145Z,38.60
2019-03-24T13:57:35.820Z,38.60
2019-03-24T13:58:42.397Z,37.50
2019-03-24T13:59:49.044Z,38.10
2019-03-24T14:00:55.931Z,38.60
2019-03-24T14:02:02.948Z,38.60
2019-03-24T14:03:10.575Z,38.20
2019-03-24T14:04:17.599Z,38.70
2019-03-24T14:05:24.647Z,38.70
2019-03-24T14:06:31.517Z,38.20
2019-03-24T14:07:38.558Z,38.20
2019-03-24T14:08:46.544Z,38.80
2019-03-24T14:09:53.257Z,39.60
2019-03-24T14:11:00.127Z,40.00
2019-03-24T14:12:06.858Z,40.20
2019-03-24T14:13:13.485Z,41.40
2019-03-24T14:14:20.293Z,41.50
2019-03-24T14:15:28.261Z,42.10
2019-03-24T14:16:35.210Z,41.10
2019-03-24T14:17:41.972Z,40.40
2019-03-24T14:18:48.778Z,41.20
2019-03-24T14:19:55.717Z,41.20
2019-03-24T14:21:02.637Z,41.20